sensor_id;sensor_type;location;lat;lon;timestamp;temperature;humidity
23721;DHT22;42950;52.134;5.578;2023-12-07T00:01:06;1.20;99.90
23721;DHT22;42950;52.134;5.578;2023-12-07T00:03:31;1.20;99.90
23721;DHT22;42950;52.134;5.578;2023-12-07T00:05:57;1.20;99.90
23721;DHT22;42950;52.134;5.578;2023-12-07T00:08:23;1.20;99.90
23721;DHT22;42950;52.134;5.578;2023-12-07T00:10:48;1.20;99.90
23721;DHT22;42950;52.134;5.578;2023-12-07T00:13:14;1.20;99.90
23721;DHT22;42950;52.134;5.578;2023-12-07T00:15:40;1.20;99.90
23721;DHT22;42950;52.134;5.578;2023-12-07T00:18:05;1.20;99.90
23721;DHT22;42950;52.134;5.578;2023-12-07T00:20:31;1.20;99.90
23721;DHT22;42950;52.134;5.578;2023-12-07T00:22:57;1.10;99.90
23721;DHT22;42950;52.134;5.578;2023-12-07T00:25:22;1.10;99.90
23721;DHT22;42950;52.134;5.578;2023-12-07T00:27:48;1.10;99.90
23721;DHT22;42950;52.134;5.578;2023-12-07T00:30:14;1.10;99.90
23721;DHT22;42950;52.134;5.578;2023-12-07T00:32:40;1.00;99.90
23721;DHT22;42950;52.134;5.578;2023-12-07T00:35:09;1.00;99.90
23721;DHT22;42950;52.134;5.578;2023-12-07T00:37:35;1.00;99.90
23721;DHT22;42950;52.134;5.578;2023-12-07T00:40:00;1.00;99.90
23721;DHT22;42950;52.134;5.578;2023-12-07T00:42:27;0.90;99.90
23721;DHT22;42950;52.134;5.578;2023-12-07T00:44:53;0.90;99.90
23721;DHT22;42950;52.134;5.578;2023-12-07T00:47:19;0.90;99.90
23721;DHT22;42950;52.134;5.578;2023-12-07T00:49:44;0.90;99.90
23721;DHT22;42950;52.134;5.578;2023-12-07T00:52:10;0.80;99.90
23721;DHT22;42950;52.134;5.578;2023-12-07T00:54:35;0.80;99.90
23721;DHT22;42950;52.134;5.578;2023-12-07T00:57:01;0.80;99.90
23721;DHT22;42950;52.134;5.578;2023-12-07T00:59:27;0.70;99.90
23721;DHT22;42950;52.134;5.578;2023-12-07T01:01:53;0.80;99.90
23721;DHT22;42950;52.134;5.578;2023-12-07T01:04:18;0.70;99.90
23721;DHT22;42950;52.134;5.578;2023-12-07T01:06:44;0.70;99.90
23721;DHT22;42950;52.134;5.578;2023-12-07T01:09:09;0.70;99.90
23721;DHT22;42950;52.134;5.578;2023-12-07T01:11:39;0.70;99.90
23721;DHT22;42950;52.134;5.578;2023-12-07T01:14:05;0.70;99.90
23721;DHT22;42950;52.134;5.578;2023-12-07T01:16:31;0.60;99.90
23721;DHT22;42950;52.134;5.578;2023-12-07T01:18:57;0.60;99.90
23721;DHT22;42950;52.134;5.578;2023-12-07T01:21:23;0.60;99.90
23721;DHT22;42950;52.134;5.578;2023-12-07T01:23:49;0.60;99.90
23721;DHT22;42950;52.134;5.578;2023-12-07T01:26:14;0.60;99.90
23721;DHT22;42950;52.134;5.578;2023-12-07T01:28:40;0.60;99.90
23721;DHT22;42950;52.134;5.578;2023-12-07T01:31:05;0.40;99.90
23721;DHT22;42950;52.134;5.578;2023-12-07T01:33:31;0.60;99.90
23721;DHT22;42950;52.134;5.578;2023-12-07T01:35:56;0.50;99.90
23721;DHT22;42950;52.134;5.578;2023-12-07T01:38:22;0.50;99.90
23721;DHT22;42950;52.134;5.578;2023-12-07T01:40:48;0.50;99.90
23721;DHT22;42950;52.134;5.578;2023-12-07T01:43:14;0.50;99.90
23721;DHT22;42950;52.134;5.578;2023-12-07T01:45:39;0.60;99.90
23721;DHT22;42950;52.134;5.578;2023-12-07T01:48:05;0.40;99.90
23721;DHT22;42950;52.134;5.578;2023-12-07T01:50:32;0.40;99.90
23721;DHT22;42950;52.134;5.578;2023-12-07T01:53:02;0.40;99.90
23721;DHT22;42950;52.134;5.578;2023-12-07T01:55:30;0.40;99.90
23721;DHT22;42950;52.134;5.578;2023-12-07T01:57:57;0.40;99.90
23721;DHT22;42950;52.134;5.578;2023-12-07T02:00:22;0.40;99.90
23721;DHT22;42950;52.134;5.578;2023-12-07T02:02:49;0.30;99.90
23721;DHT22;42950;52.134;5.578;2023-12-07T02:05:15;0.30;99.90
23721;DHT22;42950;52.134;5.578;2023-12-07T02:07:41;0.30;99.90
23721;DHT22;42950;52.134;5.578;2023-12-07T02:10:07;0.30;99.90
23721;DHT22;42950;52.134;5.578;2023-12-07T02:12:33;0.20;99.90
23721;DHT22;42950;52.134;5.578;2023-12-07T02:15:00;0.20;99.90
23721;DHT22;42950;52.134;5.578;2023-12-07T02:22:52;0.20;99.90
23721;DHT22;42950;52.134;5.578;2023-12-07T02:25:24;0.20;99.90
23721;DHT22;42950;52.134;5.578;2023-12-07T02:27:51;0.20;99.90
23721;DHT22;42950;52.134;5.578;2023-12-07T02:30:17;0.20;99.90
23721;DHT22;42950;52.134;5.578;2023-12-07T02:32:45;0.20;99.90
23721;DHT22;42950;52.134;5.578;2023-12-07T02:35:11;0.20;99.90
23721;DHT22;42950;52.134;5.578;2023-12-07T02:37:50;0.20;99.90
23721;DHT22;42950;52.134;5.578;2023-12-07T02:40:18;0.20;99.90
23721;DHT22;42950;52.134;5.578;2023-12-07T02:42:45;0.20;99.90
23721;DHT22;42950;52.134;5.578;2023-12-07T02:45:11;0.20;99.90
23721;DHT22;42950;52.134;5.578;2023-12-07T02:47:38;0.20;99.90
23721;DHT22;42950;52.134;5.578;2023-12-07T02:50:05;0.20;99.90
23721;DHT22;42950;52.134;5.578;2023-12-07T02:52:33;0.20;99.90
23721;DHT22;42950;52.134;5.578;2023-12-07T02:54:58;0.30;99.90
23721;DHT22;42950;52.134;5.578;2023-12-07T02:57:24;0.30;99.90
23721;DHT22;42950;52.134;5.578;2023-12-07T02:59:50;0.30;99.90
23721;DHT22;42950;52.134;5.578;2023-12-07T03:02:15;0.30;99.90
23721;DHT22;42950;52.134;5.578;2023-12-07T03:04:41;0.30;99.90
23721;DHT22;42950;52.134;5.578;2023-12-07T03:07:06;0.40;99.90
23721;DHT22;42950;52.134;5.578;2023-12-07T03:09:32;0.30;99.90
23721;DHT22;42950;52.134;5.578;2023-12-07T03:11:57;0.40;99.90
23721;DHT22;42950;52.134;5.578;2023-12-07T03:14:23;0.40;99.90
23721;DHT22;42950;52.134;5.578;2023-12-07T03:16:48;0.40;99.90
23721;DHT22;42950;52.134;5.578;2023-12-07T03:19:14;0.40;99.90
23721;DHT22;42950;52.134;5.578;2023-12-07T03:21:41;0.40;99.90
23721;DHT22;42950;52.134;5.578;2023-12-07T03:24:08;0.40;99.90
23721;DHT22;42950;52.134;5.578;2023-12-07T03:26:34;0.40;99.90
23721;DHT22;42950;52.134;5.578;2023-12-07T03:29:00;0.30;99.90
23721;DHT22;42950;52.134;5.578;2023-12-07T03:31:25;0.40;99.90
23721;DHT22;42950;52.134;5.578;2023-12-07T03:33:51;0.20;99.90
23721;DHT22;42950;52.134;5.578;2023-12-07T03:36:16;0.40;99.90
23721;DHT22;42950;52.134;5.578;2023-12-07T03:38:42;0.40;99.90
23721;DHT22;42950;52.134;5.578;2023-12-07T03:41:08;0.20;99.90
23721;DHT22;42950;52.134;5.578;2023-12-07T03:43:33;0.40;99.90
23721;DHT22;42950;52.134;5.578;2023-12-07T03:45:59;0.40;99.90
23721;DHT22;42950;52.134;5.578;2023-12-07T03:48:25;0.50;99.90
23721;DHT22;42950;52.134;5.578;2023-12-07T03:50:50;0.40;99.90
23721;DHT22;42950;52.134;5.578;2023-12-07T03:53:16;0.40;99.90
23721;DHT22;42950;52.134;5.578;2023-12-07T03:55:42;0.40;99.90
23721;DHT22;42950;52.134;5.578;2023-12-07T03:58:07;0.40;99.90
23721;DHT22;42950;52.134;5.578;2023-12-07T04:00:33;0.30;99.90
23721;DHT22;42950;52.134;5.578;2023-12-07T04:02:58;0.30;99.90
23721;DHT22;42950;52.134;5.578;2023-12-07T04:05:24;0.30;99.90
23721;DHT22;42950;52.134;5.578;2023-12-07T04:07:49;0.30;99.90
23721;DHT22;42950;52.134;5.578;2023-12-07T04:10:15;0.30;99.90
23721;DHT22;42950;52.134;5.578;2023-12-07T04:12:41;0.30;99.90
23721;DHT22;42950;52.134;5.578;2023-12-07T04:15:07;0.30;99.90
23721;DHT22;42950;52.134;5.578;2023-12-07T04:17:32;0.30;99.90
23721;DHT22;42950;52.134;5.578;2023-12-07T04:19:58;0.30;99.90
23721;DHT22;42950;52.134;5.578;2023-12-07T04:22:23;0.30;99.90
23721;DHT22;42950;52.134;5.578;2023-12-07T04:24:50;0.30;99.90
23721;DHT22;42950;52.134;5.578;2023-12-07T04:27:16;0.20;99.90
23721;DHT22;42950;52.134;5.578;2023-12-07T04:29:41;0.20;99.90
23721;DHT22;42950;52.134;5.578;2023-12-07T04:32:07;0.30;99.90
23721;DHT22;42950;52.134;5.578;2023-12-07T04:34:33;0.30;99.90
23721;DHT22;42950;52.134;5.578;2023-12-07T04:36:59;0.30;99.90
23721;DHT22;42950;52.134;5.578;2023-12-07T04:39:25;0.20;99.90
23721;DHT22;42950;52.134;5.578;2023-12-07T04:41:50;-0.10;99.90
23721;DHT22;42950;52.134;5.578;2023-12-07T04:44:16;0.40;99.90
23721;DHT22;42950;52.134;5.578;2023-12-07T04:46:43;0.40;99.90
23721;DHT22;42950;52.134;5.578;2023-12-07T04:49:08;0.30;99.90
23721;DHT22;42950;52.134;5.578;2023-12-07T04:51:34;0.40;99.90
23721;DHT22;42950;52.134;5.578;2023-12-07T04:54:00;0.30;99.90
23721;DHT22;42950;52.134;5.578;2023-12-07T04:56:25;0.40;99.90
23721;DHT22;42950;52.134;5.578;2023-12-07T04:58:51;0.10;99.90
23721;DHT22;42950;52.134;5.578;2023-12-07T05:01:16;0.40;99.90
23721;DHT22;42950;52.134;5.578;2023-12-07T05:03:44;0.40;99.90
23721;DHT22;42950;52.134;5.578;2023-12-07T05:06:10;0.40;99.90
23721;DHT22;42950;52.134;5.578;2023-12-07T05:08:35;0.50;99.90
23721;DHT22;42950;52.134;5.578;2023-12-07T05:11:01;0.50;99.90
23721;DHT22;42950;52.134;5.578;2023-12-07T05:13:26;0.50;99.90
23721;DHT22;42950;52.134;5.578;2023-12-07T05:15:52;0.40;99.90
23721;DHT22;42950;52.134;5.578;2023-12-07T05:18:17;0.40;99.90
23721;DHT22;42950;52.134;5.578;2023-12-07T05:20:43;0.30;99.90
23721;DHT22;42950;52.134;5.578;2023-12-07T05:23:09;0.40;99.90
23721;DHT22;42950;52.134;5.578;2023-12-07T05:25:34;0.40;99.90
23721;DHT22;42950;52.134;5.578;2023-12-07T05:28:00;0.40;99.90
23721;DHT22;42950;52.134;5.578;2023-12-07T05:30:28;0.40;99.90
23721;DHT22;42950;52.134;5.578;2023-12-07T05:32:54;0.40;99.90
23721;DHT22;42950;52.134;5.578;2023-12-07T05:35:19;0.40;99.90
23721;DHT22;42950;52.134;5.578;2023-12-07T05:37:45;0.40;99.90
23721;DHT22;42950;52.134;5.578;2023-12-07T05:40:11;0.30;99.90
23721;DHT22;42950;52.134;5.578;2023-12-07T05:42:41;0.40;99.90
23721;DHT22;42950;52.134;5.578;2023-12-07T05:45:07;0.40;99.90
23721;DHT22;42950;52.134;5.578;2023-12-07T05:47:32;0.40;99.90
23721;DHT22;42950;52.134;5.578;2023-12-07T05:49:58;0.40;99.90
23721;DHT22;42950;52.134;5.578;2023-12-07T05:52:25;0.40;99.90
23721;DHT22;42950;52.134;5.578;2023-12-07T05:54:51;0.40;99.90
23721;DHT22;42950;52.134;5.578;2023-12-07T05:57:16;0.40;99.90
23721;DHT22;42950;52.134;5.578;2023-12-07T05:59:42;0.30;99.90
23721;DHT22;42950;52.134;5.578;2023-12-07T06:02:08;0.40;99.90
23721;DHT22;42950;52.134;5.578;2023-12-07T06:04:34;0.40;99.90
23721;DHT22;42950;52.134;5.578;2023-12-07T06:06:59;0.40;99.90
23721;DHT22;42950;52.134;5.578;2023-12-07T06:09:25;0.50;99.90
23721;DHT22;42950;52.134;5.578;2023-12-07T06:11:51;0.50;99.90
23721;DHT22;42950;52.134;5.578;2023-12-07T06:14:16;0.50;99.90
23721;DHT22;42950;52.134;5.578;2023-12-07T06:16:42;0.60;99.90
23721;DHT22;42950;52.134;5.578;2023-12-07T06:19:08;0.60;99.90
23721;DHT22;42950;52.134;5.578;2023-12-07T06:21:33;0.60;99.90
23721;DHT22;42950;52.134;5.578;2023-12-07T06:23:59;0.60;99.90
23721;DHT22;42950;52.134;5.578;2023-12-07T06:26:25;0.60;99.90
23721;DHT22;42950;52.134;5.578;2023-12-07T06:28:50;0.50;99.90
23721;DHT22;42950;52.134;5.578;2023-12-07T06:31:16;0.60;99.90
23721;DHT22;42950;52.134;5.578;2023-12-07T06:33:45;0.60;99.90
23721;DHT22;42950;52.134;5.578;2023-12-07T06:36:11;0.60;99.90
23721;DHT22;42950;52.134;5.578;2023-12-07T06:38:36;0.60;99.90
23721;DHT22;42950;52.134;5.578;2023-12-07T06:41:03;0.60;99.90
23721;DHT22;42950;52.134;5.578;2023-12-07T06:43:29;0.50;99.90
23721;DHT22;42950;52.134;5.578;2023-12-07T06:45:55;0.50;99.90
23721;DHT22;42950;52.134;5.578;2023-12-07T06:48:20;0.50;99.90
23721;DHT22;42950;52.134;5.578;2023-12-07T06:50:46;0.50;99.90
23721;DHT22;42950;52.134;5.578;2023-12-07T06:53:11;0.40;99.90
23721;DHT22;42950;52.134;5.578;2023-12-07T06:55:37;0.40;99.90
23721;DHT22;42950;52.134;5.578;2023-12-07T06:58:02;0.50;99.90
23721;DHT22;42950;52.134;5.578;2023-12-07T07:00:28;0.50;99.90
23721;DHT22;42950;52.134;5.578;2023-12-07T07:02:53;0.50;99.90
23721;DHT22;42950;52.134;5.578;2023-12-07T07:05:19;0.50;99.90
23721;DHT22;42950;52.134;5.578;2023-12-07T07:07:45;0.50;99.90
23721;DHT22;42950;52.134;5.578;2023-12-07T07:10:10;0.50;99.90
23721;DHT22;42950;52.134;5.578;2023-12-07T07:12:37;0.50;99.90
23721;DHT22;42950;52.134;5.578;2023-12-07T07:15:03;0.50;99.90
23721;DHT22;42950;52.134;5.578;2023-12-07T07:17:29;0.40;99.90
23721;DHT22;42950;52.134;5.578;2023-12-07T07:19:55;0.40;99.90
23721;DHT22;42950;52.134;5.578;2023-12-07T07:22:21;0.50;99.90
23721;DHT22;42950;52.134;5.578;2023-12-07T07:24:47;0.50;99.90
23721;DHT22;42950;52.134;5.578;2023-12-07T07:27:13;0.50;99.90
23721;DHT22;42950;52.134;5.578;2023-12-07T07:29:38;0.60;99.90
23721;DHT22;42950;52.134;5.578;2023-12-07T07:32:04;0.50;99.90
23721;DHT22;42950;52.134;5.578;2023-12-07T07:34:31;0.50;99.90
23721;DHT22;42950;52.134;5.578;2023-12-07T07:36:56;0.40;99.90
23721;DHT22;42950;52.134;5.578;2023-12-07T07:39:22;0.30;99.90
23721;DHT22;42950;52.134;5.578;2023-12-07T07:41:47;0.30;99.90
23721;DHT22;42950;52.134;5.578;2023-12-07T07:44:13;0.20;99.90
23721;DHT22;42950;52.134;5.578;2023-12-07T07:46:40;0.20;99.90
23721;DHT22;42950;52.134;5.578;2023-12-07T07:49:06;0.20;99.90
23721;DHT22;42950;52.134;5.578;2023-12-07T07:51:31;0.20;99.90
23721;DHT22;42950;52.134;5.578;2023-12-07T07:53:59;0.30;99.90
23721;DHT22;42950;52.134;5.578;2023-12-07T07:56:24;0.30;99.90
23721;DHT22;42950;52.134;5.578;2023-12-07T07:58:50;0.30;99.90
23721;DHT22;42950;52.134;5.578;2023-12-07T08:01:15;0.20;99.90
23721;DHT22;42950;52.134;5.578;2023-12-07T08:03:41;0.20;99.90
23721;DHT22;42950;52.134;5.578;2023-12-07T08:06:07;0.20;99.90
23721;DHT22;42950;52.134;5.578;2023-12-07T08:08:33;0.20;99.90
23721;DHT22;42950;52.134;5.578;2023-12-07T08:10:59;0.20;99.90
23721;DHT22;42950;52.134;5.578;2023-12-07T08:13:26;0.30;99.90
23721;DHT22;42950;52.134;5.578;2023-12-07T08:15:53;0.30;99.90
23721;DHT22;42950;52.134;5.578;2023-12-07T08:18:19;0.30;99.90
23721;DHT22;42950;52.134;5.578;2023-12-07T08:20:44;0.30;99.90
23721;DHT22;42950;52.134;5.578;2023-12-07T08:23:11;0.20;99.90
23721;DHT22;42950;52.134;5.578;2023-12-07T08:25:38;0.20;99.90
23721;DHT22;42950;52.134;5.578;2023-12-07T08:28:05;0.20;99.90
23721;DHT22;42950;52.134;5.578;2023-12-07T08:30:31;0.10;99.90
23721;DHT22;42950;52.134;5.578;2023-12-07T08:32:56;0.10;99.90
23721;DHT22;42950;52.134;5.578;2023-12-07T08:35:22;0.20;99.90
23721;DHT22;42950;52.134;5.578;2023-12-07T08:37:48;0.30;99.90
23721;DHT22;42950;52.134;5.578;2023-12-07T08:40:14;0.30;99.90
23721;DHT22;42950;52.134;5.578;2023-12-07T08:42:41;0.20;99.90
23721;DHT22;42950;52.134;5.578;2023-12-07T08:45:06;0.20;99.90
23721;DHT22;42950;52.134;5.578;2023-12-07T08:47:33;0.30;99.90
23721;DHT22;42950;52.134;5.578;2023-12-07T08:49:59;0.20;99.90
23721;DHT22;42950;52.134;5.578;2023-12-07T08:52:24;0.20;99.90
23721;DHT22;42950;52.134;5.578;2023-12-07T08:54:50;0.20;99.90
23721;DHT22;42950;52.134;5.578;2023-12-07T08:57:18;0.30;99.90
23721;DHT22;42950;52.134;5.578;2023-12-07T08:59:43;0.30;99.90
23721;DHT22;42950;52.134;5.578;2023-12-07T09:02:09;0.40;99.90
23721;DHT22;42950;52.134;5.578;2023-12-07T09:04:34;0.40;99.90
23721;DHT22;42950;52.134;5.578;2023-12-07T09:07:00;0.40;99.90
23721;DHT22;42950;52.134;5.578;2023-12-07T09:09:25;0.40;99.90
23721;DHT22;42950;52.134;5.578;2023-12-07T09:11:51;0.40;99.90
23721;DHT22;42950;52.134;5.578;2023-12-07T09:14:16;0.40;99.90
23721;DHT22;42950;52.134;5.578;2023-12-07T09:16:45;0.40;99.90
23721;DHT22;42950;52.134;5.578;2023-12-07T09:19:12;0.40;99.90
23721;DHT22;42950;52.134;5.578;2023-12-07T09:21:38;0.40;99.90
23721;DHT22;42950;52.134;5.578;2023-12-07T09:24:04;0.40;99.90
23721;DHT22;42950;52.134;5.578;2023-12-07T09:26:32;0.40;99.90
23721;DHT22;42950;52.134;5.578;2023-12-07T09:28:57;0.40;99.90
23721;DHT22;42950;52.134;5.578;2023-12-07T09:31:23;0.50;99.90
23721;DHT22;42950;52.134;5.578;2023-12-07T09:33:48;0.50;99.90
23721;DHT22;42950;52.134;5.578;2023-12-07T09:36:17;0.50;99.90
23721;DHT22;42950;52.134;5.578;2023-12-07T09:38:44;0.50;99.90
23721;DHT22;42950;52.134;5.578;2023-12-07T09:41:10;0.50;99.90
23721;DHT22;42950;52.134;5.578;2023-12-07T09:43:36;0.50;99.90
23721;DHT22;42950;52.134;5.578;2023-12-07T09:46:01;0.50;99.90
23721;DHT22;42950;52.134;5.578;2023-12-07T09:48:27;0.50;99.90
23721;DHT22;42950;52.134;5.578;2023-12-07T09:50:55;0.60;99.90
23721;DHT22;42950;52.134;5.578;2023-12-07T09:53:21;0.60;99.90
23721;DHT22;42950;52.134;5.578;2023-12-07T09:55:47;0.60;99.90
23721;DHT22;42950;52.134;5.578;2023-12-07T09:58:12;0.60;99.90
23721;DHT22;42950;52.134;5.578;2023-12-07T10:00:38;0.60;99.90
23721;DHT22;42950;52.134;5.578;2023-12-07T10:03:05;0.60;99.90
23721;DHT22;42950;52.134;5.578;2023-12-07T10:05:33;0.70;99.90
23721;DHT22;42950;52.134;5.578;2023-12-07T10:07:59;0.60;99.90
23721;DHT22;42950;52.134;5.578;2023-12-07T10:10:25;0.60;99.90
23721;DHT22;42950;52.134;5.578;2023-12-07T10:15:19;0.70;99.90
23721;DHT22;42950;52.134;5.578;2023-12-07T10:17:49;0.60;99.90
23721;DHT22;42950;52.134;5.578;2023-12-07T10:20:21;0.60;99.90
23721;DHT22;42950;52.134;5.578;2023-12-07T10:23:03;0.70;99.90
23721;DHT22;42950;52.134;5.578;2023-12-07T10:25:30;0.70;99.90
23721;DHT22;42950;52.134;5.578;2023-12-07T10:27:56;0.70;99.90
23721;DHT22;42950;52.134;5.578;2023-12-07T10:30:21;0.70;99.90
23721;DHT22;42950;52.134;5.578;2023-12-07T10:32:51;0.80;99.90
23721;DHT22;42950;52.134;5.578;2023-12-07T10:35:18;0.70;99.90
23721;DHT22;42950;52.134;5.578;2023-12-07T10:37:44;0.80;99.90
23721;DHT22;42950;52.134;5.578;2023-12-07T10:40:10;0.80;99.90
23721;DHT22;42950;52.134;5.578;2023-12-07T10:42:36;0.80;99.90
23721;DHT22;42950;52.134;5.578;2023-12-07T10:45:06;0.80;99.90
23721;DHT22;42950;52.134;5.578;2023-12-07T10:47:42;0.80;99.90
23721;DHT22;42950;52.134;5.578;2023-12-07T10:50:10;0.80;99.90
23721;DHT22;42950;52.134;5.578;2023-12-07T10:52:45;0.80;99.90
23721;DHT22;42950;52.134;5.578;2023-12-07T10:55:16;0.80;99.90
23721;DHT22;42950;52.134;5.578;2023-12-07T10:57:44;0.80;99.90
23721;DHT22;42950;52.134;5.578;2023-12-07T11:00:10;0.80;99.90
23721;DHT22;42950;52.134;5.578;2023-12-07T11:02:36;0.90;99.90
23721;DHT22;42950;52.134;5.578;2023-12-07T11:05:03;0.90;99.90
23721;DHT22;42950;52.134;5.578;2023-12-07T11:10:18;1.00;99.90
23721;DHT22;42950;52.134;5.578;2023-12-07T11:13:23;1.10;99.90
23721;DHT22;42950;52.134;5.578;2023-12-07T11:15:50;1.10;99.90
23721;DHT22;42950;52.134;5.578;2023-12-07T11:18:16;1.10;99.90
23721;DHT22;42950;52.134;5.578;2023-12-07T11:20:45;1.10;99.90
23721;DHT22;42950;52.134;5.578;2023-12-07T11:23:17;1.20;99.90
23721;DHT22;42950;52.134;5.578;2023-12-07T11:25:46;1.20;99.90
23721;DHT22;42950;52.134;5.578;2023-12-07T11:28:13;1.30;99.90
23721;DHT22;42950;52.134;5.578;2023-12-07T11:30:42;1.30;99.90
23721;DHT22;42950;52.134;5.578;2023-12-07T11:33:09;1.40;99.90
23721;DHT22;42950;52.134;5.578;2023-12-07T11:36:04;1.40;99.90
23721;DHT22;42950;52.134;5.578;2023-12-07T11:38:30;1.40;99.90
23721;DHT22;42950;52.134;5.578;2023-12-07T11:40:56;1.50;99.90
23721;DHT22;42950;52.134;5.578;2023-12-07T11:46:09;1.50;99.90
23721;DHT22;42950;52.134;5.578;2023-12-07T11:48:35;1.60;99.90
23721;DHT22;42950;52.134;5.578;2023-12-07T11:51:07;1.60;99.90
23721;DHT22;42950;52.134;5.578;2023-12-07T11:53:35;1.70;99.90
23721;DHT22;42950;52.134;5.578;2023-12-07T11:56:05;1.70;99.90
23721;DHT22;42950;52.134;5.578;2023-12-07T11:58:33;1.80;99.90
23721;DHT22;42950;52.134;5.578;2023-12-07T12:00:59;1.90;99.90
23721;DHT22;42950;52.134;5.578;2023-12-07T12:03:29;1.90;99.90
23721;DHT22;42950;52.134;5.578;2023-12-07T12:05:56;1.90;99.90
23721;DHT22;42950;52.134;5.578;2023-12-07T12:08:22;1.90;99.90
23721;DHT22;42950;52.134;5.578;2023-12-07T12:10:49;1.90;99.90
23721;DHT22;42950;52.134;5.578;2023-12-07T12:13:16;1.90;99.90
23721;DHT22;42950;52.134;5.578;2023-12-07T12:15:42;1.90;99.90
23721;DHT22;42950;52.134;5.578;2023-12-07T12:18:08;2.00;99.90
23721;DHT22;42950;52.134;5.578;2023-12-07T12:20:35;2.00;99.90
23721;DHT22;42950;52.134;5.578;2023-12-07T12:23:01;2.00;99.90
23721;DHT22;42950;52.134;5.578;2023-12-07T12:25:30;2.10;99.90
23721;DHT22;42950;52.134;5.578;2023-12-07T12:27:58;2.10;99.90
23721;DHT22;42950;52.134;5.578;2023-12-07T12:30:24;2.20;99.90
23721;DHT22;42950;52.134;5.578;2023-12-07T12:32:50;2.20;99.90
23721;DHT22;42950;52.134;5.578;2023-12-07T12:35:19;2.30;99.90
23721;DHT22;42950;52.134;5.578;2023-12-07T12:37:47;2.30;99.90
23721;DHT22;42950;52.134;5.578;2023-12-07T12:40:15;2.30;99.90
23721;DHT22;42950;52.134;5.578;2023-12-07T12:42:43;2.30;99.90
23721;DHT22;42950;52.134;5.578;2023-12-07T12:45:09;2.30;99.90
23721;DHT22;42950;52.134;5.578;2023-12-07T12:47:39;2.40;99.90
23721;DHT22;42950;52.134;5.578;2023-12-07T12:50:06;2.40;99.90
23721;DHT22;42950;52.134;5.578;2023-12-07T12:52:32;2.40;99.90
23721;DHT22;42950;52.134;5.578;2023-12-07T12:54:58;2.50;99.90
23721;DHT22;42950;52.134;5.578;2023-12-07T12:57:24;2.40;99.90
23721;DHT22;42950;52.134;5.578;2023-12-07T12:59:52;2.50;99.90
23721;DHT22;42950;52.134;5.578;2023-12-07T13:02:19;2.50;99.90
23721;DHT22;42950;52.134;5.578;2023-12-07T13:04:45;2.70;99.90
23721;DHT22;42950;52.134;5.578;2023-12-07T13:07:11;2.70;99.90
23721;DHT22;42950;52.134;5.578;2023-12-07T13:09:40;2.70;99.90
23721;DHT22;42950;52.134;5.578;2023-12-07T13:12:06;2.80;99.90
23721;DHT22;42950;52.134;5.578;2023-12-07T13:14:34;2.90;99.90
23721;DHT22;42950;52.134;5.578;2023-12-07T13:17:05;2.90;99.90
23721;DHT22;42950;52.134;5.578;2023-12-07T13:19:30;2.80;99.90
23721;DHT22;42950;52.134;5.578;2023-12-07T13:21:57;2.80;99.90
23721;DHT22;42950;52.134;5.578;2023-12-07T13:24:22;2.80;99.90
23721;DHT22;42950;52.134;5.578;2023-12-07T13:26:48;2.80;99.90
23721;DHT22;42950;52.134;5.578;2023-12-07T13:29:13;2.80;99.90
23721;DHT22;42950;52.134;5.578;2023-12-07T13:31:39;2.80;99.90
23721;DHT22;42950;52.134;5.578;2023-12-07T13:34:04;2.80;99.90
23721;DHT22;42950;52.134;5.578;2023-12-07T13:36:30;2.90;99.90
23721;DHT22;42950;52.134;5.578;2023-12-07T13:38:59;3.00;99.90
23721;DHT22;42950;52.134;5.578;2023-12-07T13:41:24;2.90;99.90
23721;DHT22;42950;52.134;5.578;2023-12-07T13:43:50;2.90;99.90
23721;DHT22;42950;52.134;5.578;2023-12-07T13:46:17;3.00;99.90
23721;DHT22;42950;52.134;5.578;2023-12-07T13:48:42;2.90;99.90
23721;DHT22;42950;52.134;5.578;2023-12-07T13:51:08;2.90;99.90
23721;DHT22;42950;52.134;5.578;2023-12-07T13:53:34;2.90;99.90
23721;DHT22;42950;52.134;5.578;2023-12-07T13:56:00;2.90;99.90
23721;DHT22;42950;52.134;5.578;2023-12-07T13:58:25;2.90;99.90
23721;DHT22;42950;52.134;5.578;2023-12-07T14:00:51;2.80;99.90
23721;DHT22;42950;52.134;5.578;2023-12-07T14:03:17;2.90;99.90
23721;DHT22;42950;52.134;5.578;2023-12-07T14:05:42;2.90;99.90
23721;DHT22;42950;52.134;5.578;2023-12-07T14:08:08;2.90;99.90
23721;DHT22;42950;52.134;5.578;2023-12-07T14:10:33;2.90;99.90
23721;DHT22;42950;52.134;5.578;2023-12-07T14:13:00;2.90;99.90
23721;DHT22;42950;52.134;5.578;2023-12-07T14:15:26;2.90;99.90
23721;DHT22;42950;52.134;5.578;2023-12-07T14:17:51;2.80;99.90
23721;DHT22;42950;52.134;5.578;2023-12-07T14:20:17;2.80;99.90
23721;DHT22;42950;52.134;5.578;2023-12-07T14:22:43;2.80;99.90
23721;DHT22;42950;52.134;5.578;2023-12-07T14:25:09;2.80;99.90
23721;DHT22;42950;52.134;5.578;2023-12-07T14:27:35;2.80;99.90
23721;DHT22;42950;52.134;5.578;2023-12-07T14:30:01;2.80;99.90
23721;DHT22;42950;52.134;5.578;2023-12-07T14:32:27;2.80;99.90
23721;DHT22;42950;52.134;5.578;2023-12-07T14:34:54;2.80;99.90
23721;DHT22;42950;52.134;5.578;2023-12-07T14:37:20;2.80;99.90
23721;DHT22;42950;52.134;5.578;2023-12-07T14:39:46;2.80;99.90
23721;DHT22;42950;52.134;5.578;2023-12-07T14:42:12;2.70;99.90
23721;DHT22;42950;52.134;5.578;2023-12-07T14:44:37;2.60;99.90
23721;DHT22;42950;52.134;5.578;2023-12-07T14:47:03;2.70;99.90
23721;DHT22;42950;52.134;5.578;2023-12-07T14:49:29;2.60;99.90
23721;DHT22;42950;52.134;5.578;2023-12-07T14:51:55;2.60;99.90
23721;DHT22;42950;52.134;5.578;2023-12-07T14:54:24;2.60;99.90
23721;DHT22;42950;52.134;5.578;2023-12-07T14:56:50;2.50;99.90
23721;DHT22;42950;52.134;5.578;2023-12-07T14:59:16;2.50;99.90
23721;DHT22;42950;52.134;5.578;2023-12-07T15:01:42;2.50;99.90
23721;DHT22;42950;52.134;5.578;2023-12-07T15:04:08;2.60;99.90
23721;DHT22;42950;52.134;5.578;2023-12-07T15:06:34;2.60;99.90
23721;DHT22;42950;52.134;5.578;2023-12-07T15:09:00;2.60;99.90
23721;DHT22;42950;52.134;5.578;2023-12-07T15:11:26;2.60;99.90
23721;DHT22;42950;52.134;5.578;2023-12-07T15:13:52;2.50;99.90
23721;DHT22;42950;52.134;5.578;2023-12-07T15:16:17;2.50;99.90
23721;DHT22;42950;52.134;5.578;2023-12-07T15:18:43;2.40;99.90
23721;DHT22;42950;52.134;5.578;2023-12-07T15:21:12;2.40;99.90
23721;DHT22;42950;52.134;5.578;2023-12-07T15:23:39;2.40;99.90
23721;DHT22;42950;52.134;5.578;2023-12-07T15:26:05;2.30;99.90
23721;DHT22;42950;52.134;5.578;2023-12-07T15:28:30;2.40;99.90
23721;DHT22;42950;52.134;5.578;2023-12-07T15:30:56;2.30;99.90
23721;DHT22;42950;52.134;5.578;2023-12-07T15:33:21;2.30;99.90
23721;DHT22;42950;52.134;5.578;2023-12-07T15:35:47;2.30;99.90
23721;DHT22;42950;52.134;5.578;2023-12-07T15:38:12;2.40;99.90
23721;DHT22;42950;52.134;5.578;2023-12-07T15:40:39;2.30;99.90
23721;DHT22;42950;52.134;5.578;2023-12-07T15:43:05;2.30;99.90
23721;DHT22;42950;52.134;5.578;2023-12-07T15:45:30;2.40;99.90
23721;DHT22;42950;52.134;5.578;2023-12-07T15:47:56;2.40;99.90
23721;DHT22;42950;52.134;5.578;2023-12-07T15:50:21;2.40;99.90
23721;DHT22;42950;52.134;5.578;2023-12-07T15:52:47;2.50;99.90